ADDS METAR Data INFO
IDs: Format: Raw Decoded Include TAF

Data at: 0754 UTC 17 Oct 2017

PABA 170752Z AUTO 26026G31KT 1 1/4SM -SN BR OVC011 M06/M07 A2948 RMK AO2 PK WND 26033/0719 SLP967 P0000 T10611072 FZRANO TSNO
PABA 170745Z AUTO 26025G32KT 1SM -SN BR OVC011 M06/M07 A2948 RMK AO2 PK WND 26033/0719 P0000 FZRANO TSNO
PABA 170717Z AUTO 26028G32KT 1 1/4SM -SN BR OVC011 M06/M07 A2948 RMK AO2 PK WND 26032/0716 P0000 FZRANO TSNO
PABA 170711Z AUTO 26027G32KT 1SM -SN BR BKN011 OVC019 M06/M07 A2948 RMK AO2 PK WND 26032/0710 P0000 FZRANO TSNO
PABA 170706Z AUTO 26023G31KT 1SM -SN BR BKN009 OVC017 M06/M07 A2949 RMK AO2 PK WND 27031/0657 CIG 007V013 P0000 FZRANO TSNO
PABA 170703Z AUTO 26024G31KT 1SM -SN BR SCT009 OVC015 M06/M07 A2949 RMK AO2 PK WND 27031/0657 P0000 FZRANO TSNO
PABA 170656Z AUTO 26025G30KT 1SM -SN BR OVC012 M06/M07 A2949 RMK AO2 PK WND 26030/0655 P0000 FZRANO TSNO
PABA 170652Z AUTO 27026KT 1 1/4SM -SN BR OVC012 M06/M07 A2949 RMK AO2 PK WND 26031/0644 SLP971 P0000 T10611072 FZRANO TSNO
PABA 170638Z AUTO 27024G31KT 1SM -SN BR OVC010 M06/M07 A2949 RMK AO2 PK WND 27031/0636 CIG 007V013 P0000 FZRANO TSNO
PABA 170634Z AUTO 27026G30KT 1 1/4SM -SN BR OVC010 M06/M07 A2949 RMK AO2 PK WND 27031/0612 CIG 007V013 P0000 FZRANO TSNO
PABA 170625Z AUTO 27025G29KT 1SM -SN BR OVC010 M06/M07 A2949 RMK AO2 PK WND 27031/0612 CIG 007V013 P0000 FZRANO TSNO
PABA 170622Z AUTO 27025KT 3/4SM -SN BR OVC010 M06/M07 A2949 RMK AO2 PK WND 27031/0612 CIG 007V013 P0000 FZRANO TSNO
PABA 170552Z AUTO 27026KT 3/4SM -SN BR OVC008 M06/M07 A2950 RMK AO2 PK WND 27032/0524 CIG 005V011 SLP974 P0000 60000 T10611072 11056 21061 57008 FZRANO TSNO
PABA 170543Z AUTO 27026G29KT 3/4SM -SN BR OVC008 M06/M07 A2950 RMK AO2 PK WND 27032/0524 CIG 005V012 P0000 FZRANO TSNO
PABA 170540Z AUTO 27027KT 3/4SM -SN BR SCT006 OVC010 M06/M07 A2950 RMK AO2 PK WND 27032/0524 P0000 FZRANO TSNO
PABA 170537Z AUTO 27021KT 3/4SM -SN BR OVC008 M06/M07 A2950 RMK AO2 PK WND 27032/0524 CIG 005V012 P0000 FZRANO TSNO
PABA 170517Z AUTO 26027G30KT 3/4SM -SN BR OVC012 M06/M07 A2950 RMK AO2 PK WND 27031/0501 P0000 FZRANO TSNO
PABA 170500Z AUTO 27024G30KT 1SM -SN BR BKN012 OVC018 M06/M07 A2951 RMK AO2 PK WND 27031/0453 P0000 FZRANO TSNO
PABA 170452Z AUTO 27026KT 1 1/4SM -SN BR BKN010 OVC016 M06/M07 A2951 RMK AO2 PK WND 26032/0353 CIG 008V012 SLP977 P0000 T10561072 FZRANO TSNO
PABA 170432Z AUTO 26025KT 1 1/4SM -SN BR BKN012 BKN018 OVC026 M06/M07 A2951 RMK AO2 PK WND 26032/0353 P0000 FZRANO TSNO
PABA 170416Z AUTO 27026G31KT 2 1/2SM -SN BR BKN015 BKN021 OVC026 M06/M07 A2951 RMK AO2 PK WND 26032/0353 P0000 FZRANO TSNO
PABA 170411Z AUTO 27026G31KT 2SM -SN BR BKN012 BKN019 OVC026 M06/M07 A2951 RMK AO2 PK WND 26032/0353 P0000 FZRANO TSNO
PABA 170357Z AUTO 27025G32KT 1 1/2SM -SN BR FEW010 BKN016 OVC022 M06/M07 A2951 RMK AO2 PK WND 26032/0353 P0000 FZRANO TSNO
PABA 170352Z AUTO 27025G31KT 1 1/2SM -SN BR SCT010 BKN014 OVC020 M06/M07 A2951 RMK AO2 PK WND 26032/0332 SLP980 P0000 T10561072 FZRANO TSNO
PABA 170336Z AUTO 26025G32KT 1 1/2SM -SN BR BKN010 BKN014 OVC024 M06/M07 A2952 RMK AO2 PK WND 26032/0332 CIG 008V012 P0000 FZRANO TSNO
PABA 170319Z AUTO 27027G30KT 1SM -SN BR OVC010 M06/M07 A2952 RMK AO2 PK WND 26032/0256 CIG 008V014 P0000 FZRANO TSNO
PABA 170301Z AUTO 26028G31KT 1 1/2SM -SN BR OVC012 M06/M08 A2952 RMK AO2 PK WND 26032/0256 P0000 FZRANO TSNO
PABA 170257Z AUTO 26028G31KT 2SM -SN BR OVC012 M06/M08 A2952 RMK AO2 PK WND 26032/0256 P0000 FZRANO TSNO
PABA 170252Z AUTO 26023G30KT 4SM -SN BR OVC012 M06/M08 A2952 RMK AO2 PK WND 27034/0209 SLP983 P0000 60000 T10561078 56007 FZRANO TSNO
PABA 170237Z AUTO 27027KT 4SM -SN BR OVC012 M06/M08 A2952 RMK AO2 PK WND 27034/0209 P0000 FZRANO TSNO
PABA 170234Z AUTO 27027G32KT 2 1/2SM -SN BR OVC012 M06/M08 A2952 RMK AO2 PK WND 27034/0209 VIS 1 1/4V5 P0000 FZRANO TSNO
PABA 170228Z AUTO 27027G32KT 1 1/2SM -SN BR OVC012 M06/M08 A2952 RMK AO2 PK WND 27034/0209 P0000 FZRANO TSNO
PABA 170217Z AUTO 27026G34KT 1SM -SN BR OVC012 M06/M08 A2953 RMK AO2 PK WND 27034/0209 P0000 FZRANO TSNO
PABA 170212Z AUTO 26025G34KT 1 1/4SM -SN BR OVC012 M06/M08 A2953 RMK AO2 PK WND 27034/0209 P0000 FZRANO TSNO
PABA 170200Z AUTO 27028G33KT 2 1/2SM -SN BR OVC012 M06/M08 A2953 RMK AO2 PK WND 26033/0159 VIS 1 3/4V4 P0000 FZRANO TSNO
PABA 170152Z AUTO 27027G32KT 1 1/4SM -SN BR OVC012 M06/M08 A2953 RMK AO2 PK WND 26033/0113 SLP985 P0000 T10611078 FZRANO TSNO
PABA 170141Z AUTO 27026G31KT 3/4SM -SN BR BKN012 OVC016 M06/M08 A2953 RMK AO2 PK WND 26033/0113 P0000 FZRANO TSNO
PABA 170138Z AUTO 26026G31KT 1SM -SN BR OVC012 M06/M08 A2953 RMK AO2 PK WND 26033/0113 P0000 FZRANO TSNO
PABA 170132Z AUTO 26027G31KT 1 1/2SM -SN BR OVC012 M06/M08 A2953 RMK AO2 PK WND 26033/0113 P0000 FZRANO TSNO
PABA 170128Z AUTO 26025G31KT 2SM -SN BR BKN012 OVC022 M06/M08 A2953 RMK AO2 PK WND 26033/0113 P0000 FZRANO TSNO
PABA 170122Z AUTO 26027G33KT 3SM -SN BR BKN012 OVC023 M06/M08 A2953 RMK AO2 PK WND 26033/0113 P0000 FZRANO TSNO
PABA 170104Z AUTO 26028G31KT 2 1/2SM -SN BR OVC012 M06/M08 A2953 RMK AO2 PK WND 26033/0102 VIS 1 3/4V5 P0000 FZRANO TSNO
PABA 170058Z AUTO 26027G35KT 3SM -SN BR BKN012 OVC021 M06/M08 A2954 RMK AO2 PK WND 26031/0058 P0000 FZRANO TSNO
PABA 170052Z AUTO 26029G35KT 2SM -SN BR BKN012 BKN021 OVC032 M06/M08 A2954 RMK AO2 PK WND 26035/0051 SLP987 P0000 T10611078 FZRANO TSNO
PABA 170041Z AUTO 26029G33KT 1 1/2SM -SN BR BKN012 BKN023 OVC029 M06/M08 A2954 RMK AO2 PK WND 26033/0037 P0000 FZRANO TSNO
PABA 170032Z AUTO 26028G32KT 1 1/2SM -SN BR SCT010 BKN023 OVC029 M06/M08 A2954 RMK AO2 PK WND 26033/0031 P0000 FZRANO TSNO
PABA 170008Z AUTO 26029G33KT 1 1/2SM -SN BR BKN010 BKN022 OVC028 M06/M08 A2954 RMK AO2 PK WND 26033/0006 P0000 FZRANO TSNO
PABA 162352Z AUTO 26030KT 2SM -SN BR BKN010 BKN025 OVC035 M06/M08 A2954 RMK AO2 PK WND 26035/2253 SNB10 SLP990 P0000 60000 T10611078 11056 21061 58003 FZRANO TSNO
PABA 162345Z AUTO 26028G33KT 2SM -SN BR SCT010 BKN025 OVC033 M06/M08 A2955 RMK AO2 PK WND 26035/2253 SNB10 P0000 FZRANO TSNO
PABA 162340Z AUTO 26029G33KT 2 1/2SM -SN BR BKN010 BKN025 OVC035 M06/M08 A2955 RMK AO2 PK WND 26035/2253 VIS 1 1/2V5 SNB10 P0000 FZRANO TSNO
PABA 162332Z AUTO 26030G34KT 2 1/2SM -SN BR BKN010 BKN025 OVC037 M06/M08 A2955 RMK AO2 PK WND 26035/2253 VIS 1 3/4V5 SNB10 CIG 009V015 P0000 FZRANO TSNO
PABA 162320Z AUTO 26029G34KT 1 1/2SM -SN BR BKN010 BKN026 OVC043 M06/M08 A2955 RMK AO2 PK WND 26035/2253 VIS 1V2 SNB10 P0000 FZRANO TSNO
PABA 162317Z AUTO 26030G34KT 2SM -SN BR BKN010 BKN026 OVC043 M06/M08 A2955 RMK AO2 PK WND 26035/2253 VIS 1 1/4V4 SNB10 P0000 FZRANO TSNO
PABA 162314Z AUTO 26028G33KT 2 1/2SM -SN BR SCT010 BKN026 OVC043 M06/M08 A2955 RMK AO2 PK WND 26035/2253 VIS 1 1/2V5 SNB10 P0000 FZRANO TSNO
PABA 162302Z AUTO 26029G33KT 3SM BLSN BR FEW012 BKN035 OVC043 M06/M08 A2955 RMK AO2 PK WND 26035/2253 FZRANO TSNO
PABA 162252Z AUTO 26030G34KT 2SM BLSN BR FEW012 SCT024 OVC035 M06/M08 A2955 RMK AO2 PK WND 26036/2235 SNE02B27E50 SLP991 P0000 T10611083 FZRANO TSNO
PABA 162247Z AUTO 26030G34KT 2SM -SN BR FEW012 BKN035 OVC042 M06/M08 A2955 RMK AO2 PK WND 26036/2235 SNE02B27 P0000 FZRANO TSNO
PABA 162228Z AUTO 26030G35KT 1 3/4SM -SN FEW012 OVC033 M06/M08 A2955 RMK AO2 PK WND 26036/2154 SNE02B27 P0000 FZRANO TSNO
PABA 162222Z AUTO 26027G34KT 2 1/2SM BLSN FEW012 OVC033 M06/M08 A2955 RMK AO2 PK WND 26036/2154 VIS 1 3/4V3 SNE02 P0000 FZRANO TSNO
PABA 162210Z AUTO 26031G35KT 3SM BLSN SCT012 OVC033 M06/M08 A2955 RMK AO2 PK WND 26036/2154 SNE02 P0000 FZRANO TSNO
PABA 162207Z AUTO 25030G35KT 2 1/2SM BLSN SCT012 OVC033 M06/M08 A2955 RMK AO2 PK WND 26036/2154 VIS 2V4 SNE02 P0000 FZRANO TSNO
PABA 162204Z AUTO 26028G34KT 3SM BLSN SCT012 OVC033 M06/M08 A2955 RMK AO2 PK WND 26036/2154 SNE02 P0000 FZRANO TSNO
PABA 162152Z AUTO 26030G35KT 5SM -SN BR BKN012 OVC031 M06/M08 A2955 RMK AO2 PK WND 26035/2149 SLP993 P0000 T10561078 FZRANO TSNO
PABA 162147Z AUTO 26030G35KT 2SM -SN BR BKN012 BKN023 OVC031 M06/M08 A2955 RMK AO2 PK WND 26035/2142 P0000 FZRANO TSNO
PABA 162143Z AUTO 26030G35KT 1 3/4SM -SN BR BKN012 BKN023 OVC031 M06/M08 A2956 RMK AO2 PK WND 26035/2142 VIS 1 1/4V3 P0000 FZRANO TSNO
PABA 162140Z AUTO 26029G35KT 2SM -SN BR BKN012 BKN023 OVC031 M06/M08 A2955 RMK AO2 PK WND 26035/2132 VIS 1 1/4V4 P0000 FZRANO TSNO
PABA 162119Z AUTO 26029G34KT 3SM -SN BR BKN010 BKN030 OVC040 M06/M08 A2956 RMK AO2 PK WND 26034/2113 P0000 FZRANO TSNO
PABA 162113Z AUTO 26027G34KT 2 1/2SM -SN BR BKN010 BKN032 OVC050 M06/M08 A2956 RMK AO2 PK WND 26034/2113 VIS 1 1/2V5 P0000 FZRANO TSNO
PABA 162052Z AUTO 26030G34KT 5SM -SN BR BKN010 BKN027 OVC070 M06/M08 A2956 RMK AO2 PK WND 26034/2051 SNB05 SLP995 P0000 60000 T10611083 56007 FZRANO TSNO
PABA 162029Z AUTO 26026G34KT 4SM -SN BR BKN010 BKN019 OVC075 M06/M08 A2957 RMK AO2 PK WND 26034/2020 SNB05 P0000 FZRANO TSNO
PABA 162017Z AUTO 26026G33KT 2SM -SN BR BKN012 BKN024 OVC035 M06/M08 A2957 RMK AO2 PK WND 26033/2009 SNB05 P0000 FZRANO TSNO
PABA 162010Z AUTO 26029G33KT 2 1/2SM -SN BR SCT012 SCT024 OVC033 M06/M08 A2956 RMK AO2 PK WND 26033/2009 SNB05 P0000 FZRANO TSNO
PABA 161952Z AUTO 26028G33KT 4SM BLSN BR FEW012 OVC033 M06/M08 A2957 RMK AO2 PK WND 26034/1906 SNB1853E39 SLP998 P0000 T10611083 FZRANO TSNO
PABA 161942Z AUTO 26026G32KT 5SM BLSN BR FEW012 SCT025 OVC033 M06/M08 A2957 RMK AO2 PK WND 26034/1906 SNB1853E39 P0000 FZRANO TSNO
PABA 161930Z AUTO 26025G31KT 4SM -SN BR FEW012 BKN025 OVC033 M06/M08 A2957 RMK AO2 PK WND 26034/1906 SNB1853 P0000 FZRANO TSNO
PABA 161927Z AUTO 26027G31KT 2 1/2SM -SN BR FEW012 BKN025 OVC033 M06/M08 A2957 RMK AO2 PK WND 26034/1906 VIS 1 1/4V5 SNB1853 P0000 FZRANO TSNO
PABA 161919Z AUTO 26026G32KT 1 3/4SM -SN BR BKN025 OVC033 M06/M08 A2957 RMK AO2 PK WND 26034/1906 SNB1853 P0000 FZRANO TSNO
PABA 161915Z AUTO 26028G34KT 2SM -SN BR FEW013 BKN025 OVC033 M06/M08 A2957 RMK AO2 PK WND 26034/1906 SNB1853 P0000 FZRANO TSNO
PABA 161907Z AUTO 26029G34KT 3SM -SN BR FEW013 BKN027 OVC033 M06/M08 A2957 RMK AO2 PK WND 26034/1906 SNB1853 P0000 FZRANO TSNO
PABA 161902Z AUTO 26026G32KT 3SM -SN BR SCT013 BKN030 OVC035 M06/M08 A2957 RMK AO2 PK WND 27032/1902 SNB1853 P0000 FZRANO TSNO
PABA 161859Z AUTO 26026G32KT 3SM -SN BR SCT013 BKN027 OVC033 M06/M08 A2957 RMK AO2 PK WND 26031/1857 SNB53 P0000 FZRANO TSNO
PABA 161852Z AUTO 26028G32KT 3SM BLSN BR BKN013 BKN029 OVC035 M06/M08 A2957 RMK AO2 PK WND 26033/1820 SNE46 SLP998 P0000 T10611083 FZRANO TSNO
PABA 161827Z AUTO 26026G33KT 3SM -SN BR BKN013 BKN022 OVC040 M06/M08 A2957 RMK AO2 PK WND 26033/1820 P0000 FZRANO TSNO
PABA 161811Z AUTO 26027G33KT 10SM -SN SCT019 BKN029 OVC095 M06/M09 A2957 RMK AO2 PK WND 25033/1807 P0000 FZRANO TSNO
PABA 161752Z AUTO 26026KT 9SM -SN FEW015 BKN038 OVC095 M06/M09 A2958 RMK AO2 PK WND 26033/1738 UPB02E38SNE02B09E18B23E34B42 SLP002 P0000 60000 T10611089 11056 21067 58009 FZRANO TSNO
PABA 161652Z AUTO 26028G33KT 10SM -SN FEW044 SCT095 M06/M09 A2959 RMK AO2 PK WND 26033/1650 UPE23B42E49SNB33E42B52 SLP004 P0000 T10611089 FZRANO TSNO
PABA 161552Z AUTO 26027G30KT 10SM UP SCT014 BKN110 M06/M09 A2960 RMK AO2 PK WND 27032/1538 UPB43SNE43 SLP009 P0000 T10611089 FZRANO TSNO
PABA 161452Z AUTO 26027G33KT 9SM -SN OVC035 M06/M09 A2961 RMK AO2 PK WND 26033/1446 SLP011 P0000 60000 T10611089 58011 FZRANO TSNO
PABA 161352Z AUTO 26023KT 8SM -SN FEW018 OVC047 M06/M09 A2962 RMK AO2 PK WND 26031/1338 SLP017 P0000 T10611089 FZRANO TSNO
PABA 161252Z AUTO 26023KT 5SM -SN FEW020 BKN037 OVC050 M06/M09 A2963 RMK AO2 PK WND 26029/1243 SLP021 P0000 T10561094 FZRANO TSNO
PABA 161152Z AUTO 26025G30KT 9SM -SN SCT021 BKN036 OVC048 M06/M09 A2964 RMK AO2 PK WND 26030/1150 SLP022 P0000 60000 T10561094 11050 21072 56006 FZRANO TSNO
PABA 161128Z AUTO 26024KT 9SM -SN SCT021 BKN027 BKN038 M06/M09 A2964 RMK AO2 PK WND 26027/1119 P0000 FZRANO TSNO
PABA 161110Z AUTO 26021G27KT 9SM -SN FEW022 BKN039 OVC050 M06/M09 A2965 RMK AO2 PK WND 26027/1107 P0000 FZRANO TSNO
PABA 161102Z AUTO 27022KT 9SM -SN SCT022 BKN028 OVC050 M06/M09 A2965 RMK AO2 PK WND 27026/1059 P0000 FZRANO TSNO
PABA 161052Z AUTO 26022G27KT 9SM -SN SCT023 BKN033 OVC050 M06/M09 A2965 RMK AO2 PK WND 26027/1050 SLP026 P0000 T10561089 FZRANO TSNO
PABA 161014Z AUTO 26023KT 9SM -SN SCT019 BKN031 OVC055 M06/M08 A2965 RMK AO2 PK WND 26027/1006 P0000 FZRANO TSNO
PABA 160952Z AUTO 26022KT 9SM -SN BKN019 OVC031 M05/M08 A2966 RMK AO2 PK WND 25026/0935 SLP028 P0000 T10501083 FZRANO TSNO
PABA 160906Z AUTO 24017KT 8SM -SN SCT019 BKN027 OVC042 M06/M08 A2966 RMK AO2 P0000 FZRANO TSNO
PABA 160852Z AUTO 24018KT 7SM -SN SCT019 BKN033 M06/M08 A2966 RMK AO2 SLP030 P0000 60000 T10611083 410441078 56006 FZRANO TSNO
PABA 160752Z AUTO 26022KT 8SM -SN FEW026 M06/M08 A2966 RMK AO2 SLP030 P0000 T10611083 FZRANO TSNO
PABA 160710Z AUTO 23016KT 9SM -SN SCT024 BKN031 OVC038 M06/M09 A2967 RMK AO2 P0000 FZRANO TSNO
PABA 160652Z AUTO 24015KT 5SM -SN BR BKN024 BKN030 OVC038 M06/M08 A2967 RMK AO2 SLP033 P0000 T10611083 FZRANO TSNO
PABA 160615Z AUTO 24012KT 7SM -SN BKN022 OVC032 M07/M09 A2968 RMK AO2 P0000 FZRANO TSNO
PABA 160604Z AUTO 24013KT 7SM -SN FEW018 SCT024 OVC034 M07/M09 A2968 RMK AO2 P0000 FZRANO TSNO
PABA 160552Z AUTO 24013KT 4SM -SN BR BKN021 BKN032 BKN039 M07/M09 A2968 RMK AO2 SNB05 SLP036 P0000 60000 T10721089 11050 21078 56008 FZRANO TSNO
PABA 160540Z AUTO 23012KT 9SM -SN BKN023 M08/M09 A2968 RMK AO2 SNB05 P0000 FZRANO TSNO
PABA 160452Z AUTO 23012KT 10SM FEW021 SCT030 SCT035 M08/M11 A2969 RMK AO2 SNE10 SLP038 P0000 T10781106 FZRANO TSNO
PABA 160444Z AUTO 24013KT 10SM FEW024 SCT029 M08/M11 A2969 RMK AO2 SNE10 P0000 FZRANO TSNO
PABA 160441Z AUTO 24012KT 10SM SCT024 BKN029 M08/M11 A2969 RMK AO2 SNE10 P0000 FZRANO TSNO
PABA 160437Z AUTO 23013KT 10SM SCT024 BKN031 M08/M11 A2969 RMK AO2 SNE10 P0000 FZRANO TSNO
PABA 160352Z AUTO 24013KT 8SM -SN FEW015 BKN021 OVC026 M06/M09 A2969 RMK AO2 SLP040 P0000 T10611094 FZRANO TSNO
PABA 160256Z AUTO 24011KT 3SM -SN BR SCT011 BKN019 OVC027 M06/M08 A2970 RMK AO2 P0000 FZRANO TSNO
PABA 160252Z AUTO 23011KT 2 1/2SM -SN BR SCT011 BKN017 OVC027 M06/M08 A2970 RMK AO2 SLP044 P0000 60000 T10611078 58011 FZRANO TSNO
PABA 160248Z AUTO 24012KT 2 1/2SM -SN BR SCT011 BKN014 OVC027 M06/M08 A2970 RMK AO2 VIS 1 1/2V5 P0000 FZRANO TSNO
PABA 160218Z AUTO 23011KT 8SM -SN OVC028 M06/M08 A2971 RMK AO2 P0000 FZRANO TSNO
PABA 160210Z AUTO 22010KT 9SM -SN OVC030 M06/M08 A2971 RMK AO2 P0000 FZRANO TSNO
PABA 160207Z AUTO 22009KT 9SM -SN BKN028 OVC033 M06/M08 A2971 RMK AO2 P0000 FZRANO TSNO
PABA 160152Z AUTO 23009KT 9SM -SN OVC032 M06/M08 A2972 RMK AO2 SNB13 SLP049 P0000 T10561083 FZRANO TSNO
PABA 160052Z AUTO 24010KT 10SM OVC033 M06/M08 A2973 RMK AO2 SNB2356E31 SLP051 P0000 T10561083 FZRANO TSNO
PABA 160013Z AUTO 24010KT 9SM -SN FEW022 OVC031 M05/M09 A2973 RMK AO2 SNB2356 P0000 FZRANO TSNO
PABA 152356Z AUTO 24008KT 10SM -SN BKN029 M05/M09 A2974 RMK AO2 SNB56 P0000 FZRANO TSNO
PABA 152352Z AUTO 24008KT 10SM SCT029 M05/M09 A2974 RMK AO2 SLP055 60000 T10501089 11044 21056 58009 FZRANO TSNO
PABA 152252Z AUTO 25008KT 10SM OVC031 M05/M08 A2975 RMK AO2 SLP059 T10501083 FZRANO TSNO
PABA 152152Z AUTO 23008KT 10SM OVC031 M04/M09 A2975 RMK AO2 SNE16 SLP060 P0000 T10441089 FZRANO TSNO
PABA 152052Z AUTO 24007KT 9SM -SN OVC031 M05/M09 A2976 RMK AO2 SNB04 SLP064 P0000 60000 T10501089 56010 FZRANO TSNO